sensor_id;sensor_type;location;lat;lon;timestamp;temperature;humidity
33739;DHT22;20063;51.730;11.110;2023-09-19T00:00:57;19.10;99.90
33739;DHT22;20063;51.730;11.110;2023-09-19T00:03:23;19.00;99.90
33739;DHT22;20063;51.730;11.110;2023-09-19T00:05:50;19.00;99.90
33739;DHT22;20063;51.730;11.110;2023-09-19T00:08:16;19.10;99.90
33739;DHT22;20063;51.730;11.110;2023-09-19T00:10:42;19.00;99.90
33739;DHT22;20063;51.730;11.110;2023-09-19T00:13:08;19.00;99.90
33739;DHT22;20063;51.730;11.110;2023-09-19T00:15:40;19.00;99.90
33739;DHT22;20063;51.730;11.110;2023-09-19T00:18:06;19.00;99.90
33739;DHT22;20063;51.730;11.110;2023-09-19T00:20:35;19.00;99.90
33739;DHT22;20063;51.730;11.110;2023-09-19T00:23:04;19.00;99.90
33739;DHT22;20063;51.730;11.110;2023-09-19T00:25:37;19.00;99.90
33739;DHT22;20063;51.730;11.110;2023-09-19T00:28:04;18.90;99.90
33739;DHT22;20063;51.730;11.110;2023-09-19T00:30:31;19.00;99.90
33739;DHT22;20063;51.730;11.110;2023-09-19T00:32:56;19.00;99.90
33739;DHT22;20063;51.730;11.110;2023-09-19T00:35:22;18.90;99.90
33739;DHT22;20063;51.730;11.110;2023-09-19T00:37:51;18.90;99.90
33739;DHT22;20063;51.730;11.110;2023-09-19T00:40:17;18.90;99.90
33739;DHT22;20063;51.730;11.110;2023-09-19T00:42:43;18.90;99.90
33739;DHT22;20063;51.730;11.110;2023-09-19T00:45:10;18.80;99.90
33739;DHT22;20063;51.730;11.110;2023-09-19T00:47:38;18.80;99.90
33739;DHT22;20063;51.730;11.110;2023-09-19T00:50:05;18.80;99.90
33739;DHT22;20063;51.730;11.110;2023-09-19T00:52:34;18.80;99.90
33739;DHT22;20063;51.730;11.110;2023-09-19T00:55:05;18.80;99.90
33739;DHT22;20063;51.730;11.110;2023-09-19T00:57:31;18.70;99.90
33739;DHT22;20063;51.730;11.110;2023-09-19T00:59:58;18.70;99.90
33739;DHT22;20063;51.730;11.110;2023-09-19T01:02:25;18.70;99.90
33739;DHT22;20063;51.730;11.110;2023-09-19T01:04:54;18.60;99.90
33739;DHT22;20063;51.730;11.110;2023-09-19T01:07:20;18.60;99.90
33739;DHT22;20063;51.730;11.110;2023-09-19T01:09:51;18.60;99.90
33739;DHT22;20063;51.730;11.110;2023-09-19T01:12:48;18.50;99.90
33739;DHT22;20063;51.730;11.110;2023-09-19T01:17:53;18.40;99.90
33739;DHT22;20063;51.730;11.110;2023-09-19T01:29:41;18.40;99.90
33739;DHT22;20063;51.730;11.110;2023-09-19T01:32:17;18.40;99.90
33739;DHT22;20063;51.730;11.110;2023-09-19T01:37:20;18.40;99.90
33739;DHT22;20063;51.730;11.110;2023-09-19T01:39:53;18.30;99.90
33739;DHT22;20063;51.730;11.110;2023-09-19T01:42:43;18.30;99.90
33739;DHT22;20063;51.730;11.110;2023-09-19T01:47:51;18.20;99.90
33739;DHT22;20063;51.730;11.110;2023-09-19T01:50:38;18.20;99.90
33739;DHT22;20063;51.730;11.110;2023-09-19T01:53:13;18.20;99.90
33739;DHT22;20063;51.730;11.110;2023-09-19T01:55:47;18.20;99.90
33739;DHT22;20063;51.730;11.110;2023-09-19T01:58:37;18.10;99.90
33739;DHT22;20063;51.730;11.110;2023-09-19T02:01:06;18.10;99.90
33739;DHT22;20063;51.730;11.110;2023-09-19T02:03:35;18.10;99.90
33739;DHT22;20063;51.730;11.110;2023-09-19T02:06:01;18.10;99.90
33739;DHT22;20063;51.730;11.110;2023-09-19T02:08:28;18.00;99.90
33739;DHT22;20063;51.730;11.110;2023-09-19T02:10:57;18.00;99.90
33739;DHT22;20063;51.730;11.110;2023-09-19T02:13:23;17.90;99.90
33739;DHT22;20063;51.730;11.110;2023-09-19T02:15:51;17.90;99.90
33739;DHT22;20063;51.730;11.110;2023-09-19T02:18:16;17.80;99.90
33739;DHT22;20063;51.730;11.110;2023-09-19T02:20:55;17.80;99.90
33739;DHT22;20063;51.730;11.110;2023-09-19T02:23:21;17.80;99.90
33739;DHT22;20063;51.730;11.110;2023-09-19T02:25:54;17.80;99.90
33739;DHT22;20063;51.730;11.110;2023-09-19T02:28:20;17.70;99.90
33739;DHT22;20063;51.730;11.110;2023-09-19T02:30:48;17.70;99.90
33739;DHT22;20063;51.730;11.110;2023-09-19T02:33:16;17.70;99.90
33739;DHT22;20063;51.730;11.110;2023-09-19T02:35:45;17.60;99.90
33739;DHT22;20063;51.730;11.110;2023-09-19T02:38:11;17.60;99.90
33739;DHT22;20063;51.730;11.110;2023-09-19T02:40:38;17.60;99.90
33739;DHT22;20063;51.730;11.110;2023-09-19T02:43:04;17.60;99.90
33739;DHT22;20063;51.730;11.110;2023-09-19T02:45:30;17.60;99.90
33739;DHT22;20063;51.730;11.110;2023-09-19T02:47:56;17.60;99.90
33739;DHT22;20063;51.730;11.110;2023-09-19T02:50:22;17.50;99.90
33739;DHT22;20063;51.730;11.110;2023-09-19T02:52:48;17.50;99.90
33739;DHT22;20063;51.730;11.110;2023-09-19T02:55:18;17.50;99.90
33739;DHT22;20063;51.730;11.110;2023-09-19T02:57:52;17.50;99.90
33739;DHT22;20063;51.730;11.110;2023-09-19T03:00:20;17.40;99.90
33739;DHT22;20063;51.730;11.110;2023-09-19T03:02:50;17.40;99.90
33739;DHT22;20063;51.730;11.110;2023-09-19T03:05:17;17.40;99.90
33739;DHT22;20063;51.730;11.110;2023-09-19T03:07:43;17.40;99.90
33739;DHT22;20063;51.730;11.110;2023-09-19T03:10:11;17.30;99.90
33739;DHT22;20063;51.730;11.110;2023-09-19T03:12:37;17.30;99.90
33739;DHT22;20063;51.730;11.110;2023-09-19T03:15:05;17.30;99.90
33739;DHT22;20063;51.730;11.110;2023-09-19T03:17:30;17.30;99.90
33739;DHT22;20063;51.730;11.110;2023-09-19T03:19:56;17.30;99.90
33739;DHT22;20063;51.730;11.110;2023-09-19T03:22:22;17.30;99.90
33739;DHT22;20063;51.730;11.110;2023-09-19T03:24:50;17.30;99.90
33739;DHT22;20063;51.730;11.110;2023-09-19T03:27:15;17.30;99.90
33739;DHT22;20063;51.730;11.110;2023-09-19T03:29:42;17.30;99.90
33739;DHT22;20063;51.730;11.110;2023-09-19T03:32:08;17.30;99.90
33739;DHT22;20063;51.730;11.110;2023-09-19T03:34:37;17.20;99.90
33739;DHT22;20063;51.730;11.110;2023-09-19T03:37:06;17.20;99.90
33739;DHT22;20063;51.730;11.110;2023-09-19T03:39:32;17.20;99.90
33739;DHT22;20063;51.730;11.110;2023-09-19T03:41:57;17.20;99.90
33739;DHT22;20063;51.730;11.110;2023-09-19T03:44:23;17.20;99.90
33739;DHT22;20063;51.730;11.110;2023-09-19T03:46:49;17.20;99.90
33739;DHT22;20063;51.730;11.110;2023-09-19T03:49:15;17.10;99.90
33739;DHT22;20063;51.730;11.110;2023-09-19T03:51:40;17.10;99.90
33739;DHT22;20063;51.730;11.110;2023-09-19T03:54:07;17.10;99.90
33739;DHT22;20063;51.730;11.110;2023-09-19T03:56:33;17.10;99.90
33739;DHT22;20063;51.730;11.110;2023-09-19T03:58:58;17.10;99.90
33739;DHT22;20063;51.730;11.110;2023-09-19T04:01:24;17.00;99.90
33739;DHT22;20063;51.730;11.110;2023-09-19T04:03:50;17.00;99.90
33739;DHT22;20063;51.730;11.110;2023-09-19T04:06:17;17.00;99.90
33739;DHT22;20063;51.730;11.110;2023-09-19T04:08:44;16.90;99.90
33739;DHT22;20063;51.730;11.110;2023-09-19T04:11:10;16.90;99.90
33739;DHT22;20063;51.730;11.110;2023-09-19T04:13:36;17.00;99.90
33739;DHT22;20063;51.730;11.110;2023-09-19T04:16:02;16.90;99.90
33739;DHT22;20063;51.730;11.110;2023-09-19T04:18:32;16.90;99.90
33739;DHT22;20063;51.730;11.110;2023-09-19T04:21:02;16.80;99.90
33739;DHT22;20063;51.730;11.110;2023-09-19T04:23:30;16.80;99.90
33739;DHT22;20063;51.730;11.110;2023-09-19T04:25:56;16.80;99.90
33739;DHT22;20063;51.730;11.110;2023-09-19T04:28:22;16.80;99.90
33739;DHT22;20063;51.730;11.110;2023-09-19T04:30:48;16.70;99.90
33739;DHT22;20063;51.730;11.110;2023-09-19T04:33:14;16.70;99.90
33739;DHT22;20063;51.730;11.110;2023-09-19T04:35:40;16.70;99.90
33739;DHT22;20063;51.730;11.110;2023-09-19T04:38:08;16.70;99.90
33739;DHT22;20063;51.730;11.110;2023-09-19T04:40:33;16.70;99.90
33739;DHT22;20063;51.730;11.110;2023-09-19T04:42:59;16.60;99.90
33739;DHT22;20063;51.730;11.110;2023-09-19T04:45:26;16.50;99.90
33739;DHT22;20063;51.730;11.110;2023-09-19T04:47:53;16.50;99.90
33739;DHT22;20063;51.730;11.110;2023-09-19T04:50:19;16.50;99.90
33739;DHT22;20063;51.730;11.110;2023-09-19T04:52:49;16.60;99.90
33739;DHT22;20063;51.730;11.110;2023-09-19T04:55:17;16.50;99.90
33739;DHT22;20063;51.730;11.110;2023-09-19T04:57:50;16.40;99.90
33739;DHT22;20063;51.730;11.110;2023-09-19T05:00:17;16.40;99.90
33739;DHT22;20063;51.730;11.110;2023-09-19T05:02:48;16.40;99.90
33739;DHT22;20063;51.730;11.110;2023-09-19T05:05:14;16.40;99.90
33739;DHT22;20063;51.730;11.110;2023-09-19T05:07:42;16.40;99.90
33739;DHT22;20063;51.730;11.110;2023-09-19T05:10:10;16.40;99.90
33739;DHT22;20063;51.730;11.110;2023-09-19T05:12:37;16.30;99.90
33739;DHT22;20063;51.730;11.110;2023-09-19T05:15:03;16.30;99.90
33739;DHT22;20063;51.730;11.110;2023-09-19T05:17:30;16.30;99.90
33739;DHT22;20063;51.730;11.110;2023-09-19T05:19:57;16.30;99.90
33739;DHT22;20063;51.730;11.110;2023-09-19T05:22:23;16.30;99.90
33739;DHT22;20063;51.730;11.110;2023-09-19T05:24:50;16.30;99.90
33739;DHT22;20063;51.730;11.110;2023-09-19T05:27:16;16.30;99.90
33739;DHT22;20063;51.730;11.110;2023-09-19T05:29:45;16.30;99.90
33739;DHT22;20063;51.730;11.110;2023-09-19T05:32:11;16.30;99.90
33739;DHT22;20063;51.730;11.110;2023-09-19T05:34:38;16.30;99.90
33739;DHT22;20063;51.730;11.110;2023-09-19T05:37:04;16.30;99.90
33739;DHT22;20063;51.730;11.110;2023-09-19T05:39:34;16.20;99.90
33739;DHT22;20063;51.730;11.110;2023-09-19T05:41:59;16.20;99.90
33739;DHT22;20063;51.730;11.110;2023-09-19T05:44:30;16.20;99.90
33739;DHT22;20063;51.730;11.110;2023-09-19T05:46:56;16.20;99.90
33739;DHT22;20063;51.730;11.110;2023-09-19T05:49:22;16.20;99.90
33739;DHT22;20063;51.730;11.110;2023-09-19T05:51:50;16.20;99.90
33739;DHT22;20063;51.730;11.110;2023-09-19T05:54:20;16.20;99.90
33739;DHT22;20063;51.730;11.110;2023-09-19T05:56:45;16.20;99.90
33739;DHT22;20063;51.730;11.110;2023-09-19T05:59:13;16.10;99.90
33739;DHT22;20063;51.730;11.110;2023-09-19T06:01:42;16.10;99.90
33739;DHT22;20063;51.730;11.110;2023-09-19T06:04:08;16.10;99.90
33739;DHT22;20063;51.730;11.110;2023-09-19T06:06:33;16.10;99.90
33739;DHT22;20063;51.730;11.110;2023-09-19T06:09:05;16.10;99.90
33739;DHT22;20063;51.730;11.110;2023-09-19T06:11:31;16.10;99.90
33739;DHT22;20063;51.730;11.110;2023-09-19T06:14:03;16.10;99.90
33739;DHT22;20063;51.730;11.110;2023-09-19T06:16:31;16.10;99.90
33739;DHT22;20063;51.730;11.110;2023-09-19T06:18:57;16.20;99.90
33739;DHT22;20063;51.730;11.110;2023-09-19T06:21:27;16.10;99.90
33739;DHT22;20063;51.730;11.110;2023-09-19T06:23:53;16.20;99.90
33739;DHT22;20063;51.730;11.110;2023-09-19T06:26:20;16.10;99.90
33739;DHT22;20063;51.730;11.110;2023-09-19T06:28:45;16.10;99.90
33739;DHT22;20063;51.730;11.110;2023-09-19T06:31:12;16.10;99.90
33739;DHT22;20063;51.730;11.110;2023-09-19T06:33:39;16.10;99.90
33739;DHT22;20063;51.730;11.110;2023-09-19T06:36:09;16.10;99.90
33739;DHT22;20063;51.730;11.110;2023-09-19T06:38:35;16.10;99.90
33739;DHT22;20063;51.730;11.110;2023-09-19T06:41:02;16.10;99.90
33739;DHT22;20063;51.730;11.110;2023-09-19T06:43:33;16.10;99.90
33739;DHT22;20063;51.730;11.110;2023-09-19T06:46:00;16.10;99.90
33739;DHT22;20063;51.730;11.110;2023-09-19T06:48:26;16.10;99.90
33739;DHT22;20063;51.730;11.110;2023-09-19T06:50:57;16.10;99.90
33739;DHT22;20063;51.730;11.110;2023-09-19T06:53:24;16.10;99.90
33739;DHT22;20063;51.730;11.110;2023-09-19T06:55:50;16.20;99.90
33739;DHT22;20063;51.730;11.110;2023-09-19T06:58:16;16.10;99.90
33739;DHT22;20063;51.730;11.110;2023-09-19T07:00:42;16.20;99.90
33739;DHT22;20063;51.730;11.110;2023-09-19T07:03:08;16.20;99.90
33739;DHT22;20063;51.730;11.110;2023-09-19T07:05:38;16.20;99.90
33739;DHT22;20063;51.730;11.110;2023-09-19T07:08:08;16.10;99.90
33739;DHT22;20063;51.730;11.110;2023-09-19T07:10:38;16.20;99.90
33739;DHT22;20063;51.730;11.110;2023-09-19T07:13:07;16.10;99.90
33739;DHT22;20063;51.730;11.110;2023-09-19T07:15:37;16.20;99.90
33739;DHT22;20063;51.730;11.110;2023-09-19T07:18:06;16.10;99.90
33739;DHT22;20063;51.730;11.110;2023-09-19T07:20:32;16.10;99.90
33739;DHT22;20063;51.730;11.110;2023-09-19T07:22:58;16.00;99.90
33739;DHT22;20063;51.730;11.110;2023-09-19T07:25:27;16.10;99.90
33739;DHT22;20063;51.730;11.110;2023-09-19T07:27:58;16.10;99.90
33739;DHT22;20063;51.730;11.110;2023-09-19T07:30:26;16.00;99.90
33739;DHT22;20063;51.730;11.110;2023-09-19T07:32:52;16.10;99.90
33739;DHT22;20063;51.730;11.110;2023-09-19T07:35:18;16.20;99.90
33739;DHT22;20063;51.730;11.110;2023-09-19T07:37:46;16.20;99.90
33739;DHT22;20063;51.730;11.110;2023-09-19T07:40:15;16.30;99.90
33739;DHT22;20063;51.730;11.110;2023-09-19T07:42:41;16.40;99.90
33739;DHT22;20063;51.730;11.110;2023-09-19T07:45:08;16.40;99.90
33739;DHT22;20063;51.730;11.110;2023-09-19T07:47:34;16.40;99.90
33739;DHT22;20063;51.730;11.110;2023-09-19T07:50:01;16.50;99.90
33739;DHT22;20063;51.730;11.110;2023-09-19T07:52:28;16.50;99.90
33739;DHT22;20063;51.730;11.110;2023-09-19T07:54:55;16.50;99.90
33739;DHT22;20063;51.730;11.110;2023-09-19T07:57:22;16.50;99.90
33739;DHT22;20063;51.730;11.110;2023-09-19T07:59:48;16.40;99.90
33739;DHT22;20063;51.730;11.110;2023-09-19T08:02:13;16.40;99.90
33739;DHT22;20063;51.730;11.110;2023-09-19T08:04:43;16.30;99.90
33739;DHT22;20063;51.730;11.110;2023-09-19T08:07:12;16.30;99.90
33739;DHT22;20063;51.730;11.110;2023-09-19T08:09:38;16.30;99.90
33739;DHT22;20063;51.730;11.110;2023-09-19T08:12:05;16.30;99.90
33739;DHT22;20063;51.730;11.110;2023-09-19T08:14:33;16.30;99.90
33739;DHT22;20063;51.730;11.110;2023-09-19T08:16:59;16.30;99.90
33739;DHT22;20063;51.730;11.110;2023-09-19T08:19:25;16.30;99.90
33739;DHT22;20063;51.730;11.110;2023-09-19T08:21:57;16.30;99.90
33739;DHT22;20063;51.730;11.110;2023-09-19T08:24:28;16.40;99.90
33739;DHT22;20063;51.730;11.110;2023-09-19T08:26:55;16.40;99.90
33739;DHT22;20063;51.730;11.110;2023-09-19T08:29:21;16.50;99.90
33739;DHT22;20063;51.730;11.110;2023-09-19T08:31:50;16.50;99.90
33739;DHT22;20063;51.730;11.110;2023-09-19T08:34:16;16.60;99.90
33739;DHT22;20063;51.730;11.110;2023-09-19T08:36:41;16.60;99.90
33739;DHT22;20063;51.730;11.110;2023-09-19T08:39:09;16.60;99.90
33739;DHT22;20063;51.730;11.110;2023-09-19T08:41:35;16.60;99.90
33739;DHT22;20063;51.730;11.110;2023-09-19T08:44:00;16.60;99.90
33739;DHT22;20063;51.730;11.110;2023-09-19T08:46:30;16.60;99.90
33739;DHT22;20063;51.730;11.110;2023-09-19T08:49:04;16.50;99.90
33739;DHT22;20063;51.730;11.110;2023-09-19T08:51:43;16.50;99.90
33739;DHT22;20063;51.730;11.110;2023-09-19T08:54:27;16.50;99.90
33739;DHT22;20063;51.730;11.110;2023-09-19T08:56:55;16.50;99.90
33739;DHT22;20063;51.730;11.110;2023-09-19T08:59:22;16.50;99.90
33739;DHT22;20063;51.730;11.110;2023-09-19T09:01:53;16.50;99.90
33739;DHT22;20063;51.730;11.110;2023-09-19T09:04:20;16.50;99.90
33739;DHT22;20063;51.730;11.110;2023-09-19T09:06:48;16.50;99.90
33739;DHT22;20063;51.730;11.110;2023-09-19T09:09:17;16.50;99.90
33739;DHT22;20063;51.730;11.110;2023-09-19T09:11:42;16.50;99.90
33739;DHT22;20063;51.730;11.110;2023-09-19T09:14:08;16.50;99.90
33739;DHT22;20063;51.730;11.110;2023-09-19T09:16:34;16.50;99.90
33739;DHT22;20063;51.730;11.110;2023-09-19T09:19:00;16.50;99.90
33739;DHT22;20063;51.730;11.110;2023-09-19T09:21:27;16.60;99.90
33739;DHT22;20063;51.730;11.110;2023-09-19T09:23:54;16.60;99.90
33739;DHT22;20063;51.730;11.110;2023-09-19T09:26:43;16.70;99.90
33739;DHT22;20063;51.730;11.110;2023-09-19T09:29:09;16.70;99.90
33739;DHT22;20063;51.730;11.110;2023-09-19T09:31:34;16.80;99.90
33739;DHT22;20063;51.730;11.110;2023-09-19T09:34:00;16.90;99.90
33739;DHT22;20063;51.730;11.110;2023-09-19T09:36:37;16.90;99.90
33739;DHT22;20063;51.730;11.110;2023-09-19T09:39:03;16.90;99.90
33739;DHT22;20063;51.730;11.110;2023-09-19T09:41:50;17.00;99.90
33739;DHT22;20063;51.730;11.110;2023-09-19T09:44:17;17.00;99.90
33739;DHT22;20063;51.730;11.110;2023-09-19T09:46:47;17.00;99.90
33739;DHT22;20063;51.730;11.110;2023-09-19T09:49:26;17.10;99.90
33739;DHT22;20063;51.730;11.110;2023-09-19T09:52:03;17.10;99.90
33739;DHT22;20063;51.730;11.110;2023-09-19T09:55:02;17.10;99.90
33739;DHT22;20063;51.730;11.110;2023-09-19T09:57:34;17.10;99.90
33739;DHT22;20063;51.730;11.110;2023-09-19T10:00:00;17.20;99.90
33739;DHT22;20063;51.730;11.110;2023-09-19T10:02:45;17.20;99.90
33739;DHT22;20063;51.730;11.110;2023-09-19T10:05:21;17.20;99.90
33739;DHT22;20063;51.730;11.110;2023-09-19T10:07:52;17.30;99.90
33739;DHT22;20063;51.730;11.110;2023-09-19T10:10:36;17.20;99.90
33739;DHT22;20063;51.730;11.110;2023-09-19T10:13:12;17.40;99.90
33739;DHT22;20063;51.730;11.110;2023-09-19T10:15:42;17.50;99.90
33739;DHT22;20063;51.730;11.110;2023-09-19T10:18:20;17.50;99.90
33739;DHT22;20063;51.730;11.110;2023-09-19T10:20:46;17.60;99.90
33739;DHT22;20063;51.730;11.110;2023-09-19T10:23:27;17.50;99.90
33739;DHT22;20063;51.730;11.110;2023-09-19T10:25:57;17.50;99.90
33739;DHT22;20063;51.730;11.110;2023-09-19T10:28:27;17.50;99.90
33739;DHT22;20063;51.730;11.110;2023-09-19T10:30:56;17.60;99.90
33739;DHT22;20063;51.730;11.110;2023-09-19T10:33:23;17.60;99.90
33739;DHT22;20063;51.730;11.110;2023-09-19T10:35:53;17.60;99.90
33739;DHT22;20063;51.730;11.110;2023-09-19T10:38:26;17.70;99.90
33739;DHT22;20063;51.730;11.110;2023-09-19T10:40:53;17.80;99.90
33739;DHT22;20063;51.730;11.110;2023-09-19T10:43:20;17.90;99.90
33739;DHT22;20063;51.730;11.110;2023-09-19T10:45:49;17.90;99.90
33739;DHT22;20063;51.730;11.110;2023-09-19T10:48:16;18.00;99.90
33739;DHT22;20063;51.730;11.110;2023-09-19T10:50:50;18.00;99.90
33739;DHT22;20063;51.730;11.110;2023-09-19T10:53:17;18.00;99.90
33739;DHT22;20063;51.730;11.110;2023-09-19T10:55:50;18.00;99.90
33739;DHT22;20063;51.730;11.110;2023-09-19T10:58:47;18.00;99.90
33739;DHT22;20063;51.730;11.110;2023-09-19T11:01:12;18.10;99.90
33739;DHT22;20063;51.730;11.110;2023-09-19T11:03:38;18.20;99.90
33739;DHT22;20063;51.730;11.110;2023-09-19T11:06:17;18.30;99.90
33739;DHT22;20063;51.730;11.110;2023-09-19T11:09:03;18.20;99.90
33739;DHT22;20063;51.730;11.110;2023-09-19T11:11:46;18.30;99.90
33739;DHT22;20063;51.730;11.110;2023-09-19T11:30:46;18.70;99.90
33739;DHT22;20063;51.730;11.110;2023-09-19T11:33:22;18.50;99.90
33739;DHT22;20063;51.730;11.110;2023-09-19T11:44:31;18.60;99.90
33739;DHT22;20063;51.730;11.110;2023-09-19T11:49:16;18.70;99.90
33739;DHT22;20063;51.730;11.110;2023-09-19T11:51:47;18.80;99.90
33739;DHT22;20063;51.730;11.110;2023-09-19T11:54:17;18.70;99.90
33739;DHT22;20063;51.730;11.110;2023-09-19T11:56:53;18.70;99.90
33739;DHT22;20063;51.730;11.110;2023-09-19T11:59:23;18.50;99.90
33739;DHT22;20063;51.730;11.110;2023-09-19T12:01:56;18.50;99.90
33739;DHT22;20063;51.730;11.110;2023-09-19T12:04:38;18.50;99.90
33739;DHT22;20063;51.730;11.110;2023-09-19T12:07:08;18.50;99.90
33739;DHT22;20063;51.730;11.110;2023-09-19T12:09:40;18.60;99.90
33739;DHT22;20063;51.730;11.110;2023-09-19T12:12:10;18.60;99.90
33739;DHT22;20063;51.730;11.110;2023-09-19T12:14:58;18.60;99.90
33739;DHT22;20063;51.730;11.110;2023-09-19T12:20:02;18.70;99.90
33739;DHT22;20063;51.730;11.110;2023-09-19T12:22:45;18.70;99.90
33739;DHT22;20063;51.730;11.110;2023-09-19T12:25:12;18.80;99.90
33739;DHT22;20063;51.730;11.110;2023-09-19T12:27:45;18.70;99.90
33739;DHT22;20063;51.730;11.110;2023-09-19T12:30:27;18.80;99.90
33739;DHT22;20063;51.730;11.110;2023-09-19T12:32:53;18.80;99.90
33739;DHT22;20063;51.730;11.110;2023-09-19T12:35:33;18.80;99.90
33739;DHT22;20063;51.730;11.110;2023-09-19T12:38:04;18.80;99.90
33739;DHT22;20063;51.730;11.110;2023-09-19T12:40:31;18.80;99.90
33739;DHT22;20063;51.730;11.110;2023-09-19T12:43:01;18.90;99.90
33739;DHT22;20063;51.730;11.110;2023-09-19T12:45:31;18.90;99.90
33739;DHT22;20063;51.730;11.110;2023-09-19T12:48:23;18.80;99.90
33739;DHT22;20063;51.730;11.110;2023-09-19T12:51:11;18.80;99.90
33739;DHT22;20063;51.730;11.110;2023-09-19T12:53:42;18.80;99.90
33739;DHT22;20063;51.730;11.110;2023-09-19T12:56:10;18.70;99.90
33739;DHT22;20063;51.730;11.110;2023-09-19T13:01:19;18.80;99.90
33739;DHT22;20063;51.730;11.110;2023-09-19T13:03:45;18.90;99.90
33739;DHT22;20063;51.730;11.110;2023-09-19T13:06:11;19.10;99.90
33739;DHT22;20063;51.730;11.110;2023-09-19T13:08:39;19.20;99.90
33739;DHT22;20063;51.730;11.110;2023-09-19T13:16:26;19.50;99.90
33739;DHT22;20063;51.730;11.110;2023-09-19T13:18:54;19.50;99.90
33739;DHT22;20063;51.730;11.110;2023-09-19T13:21:48;19.50;99.90
33739;DHT22;20063;51.730;11.110;2023-09-19T13:24:23;19.50;99.90
33739;DHT22;20063;51.730;11.110;2023-09-19T13:26:52;19.50;99.90
33739;DHT22;20063;51.730;11.110;2023-09-19T13:29:17;19.50;99.90
33739;DHT22;20063;51.730;11.110;2023-09-19T13:31:47;19.60;99.90
33739;DHT22;20063;51.730;11.110;2023-09-19T13:34:13;19.50;99.90
33739;DHT22;20063;51.730;11.110;2023-09-19T13:36:41;19.50;99.90
33739;DHT22;20063;51.730;11.110;2023-09-19T13:39:08;19.50;99.90
33739;DHT22;20063;51.730;11.110;2023-09-19T13:41:35;19.60;99.90
33739;DHT22;20063;51.730;11.110;2023-09-19T13:44:02;19.60;99.90
33739;DHT22;20063;51.730;11.110;2023-09-19T13:46:28;19.70;99.90
33739;DHT22;20063;51.730;11.110;2023-09-19T13:48:53;19.70;99.90
33739;DHT22;20063;51.730;11.110;2023-09-19T13:51:20;19.80;99.90
33739;DHT22;20063;51.730;11.110;2023-09-19T13:53:50;19.90;99.90
33739;DHT22;20063;51.730;11.110;2023-09-19T13:56:16;19.90;99.90
33739;DHT22;20063;51.730;11.110;2023-09-19T13:58:42;19.90;99.90
33739;DHT22;20063;51.730;11.110;2023-09-19T14:01:08;19.90;99.90
33739;DHT22;20063;51.730;11.110;2023-09-19T14:03:38;20.00;99.90
33739;DHT22;20063;51.730;11.110;2023-09-19T14:06:05;20.00;99.90
33739;DHT22;20063;51.730;11.110;2023-09-19T14:08:30;20.10;99.90
33739;DHT22;20063;51.730;11.110;2023-09-19T14:10:56;20.10;99.90
33739;DHT22;20063;51.730;11.110;2023-09-19T14:13:22;20.10;99.90
33739;DHT22;20063;51.730;11.110;2023-09-19T14:15:47;20.10;99.90
33739;DHT22;20063;51.730;11.110;2023-09-19T14:18:13;20.20;99.90
33739;DHT22;20063;51.730;11.110;2023-09-19T14:20:39;20.20;99.90
33739;DHT22;20063;51.730;11.110;2023-09-19T14:23:08;20.30;99.90
33739;DHT22;20063;51.730;11.110;2023-09-19T14:25:36;20.30;99.90
33739;DHT22;20063;51.730;11.110;2023-09-19T14:28:05;20.30;99.90
33739;DHT22;20063;51.730;11.110;2023-09-19T14:30:32;20.30;99.90
33739;DHT22;20063;51.730;11.110;2023-09-19T14:32:57;20.20;99.90
33739;DHT22;20063;51.730;11.110;2023-09-19T14:35:24;20.10;99.90
33739;DHT22;20063;51.730;11.110;2023-09-19T14:37:50;20.10;99.90
33739;DHT22;20063;51.730;11.110;2023-09-19T14:40:16;20.00;99.90
33739;DHT22;20063;51.730;11.110;2023-09-19T14:42:43;19.90;99.90
33739;DHT22;20063;51.730;11.110;2023-09-19T14:45:10;19.80;99.90
33739;DHT22;20063;51.730;11.110;2023-09-19T14:47:37;19.70;99.90
33739;DHT22;20063;51.730;11.110;2023-09-19T14:50:03;19.60;99.90
33739;DHT22;20063;51.730;11.110;2023-09-19T14:52:33;19.70;99.90
33739;DHT22;20063;51.730;11.110;2023-09-19T14:55:01;19.80;99.90
33739;DHT22;20063;51.730;11.110;2023-09-19T14:57:27;19.90;99.90
33739;DHT22;20063;51.730;11.110;2023-09-19T14:59:53;20.10;99.90
33739;DHT22;20063;51.730;11.110;2023-09-19T15:02:19;20.20;99.90
33739;DHT22;20063;51.730;11.110;2023-09-19T15:04:46;20.20;99.90
33739;DHT22;20063;51.730;11.110;2023-09-19T15:07:15;20.30;99.90
33739;DHT22;20063;51.730;11.110;2023-09-19T15:09:44;20.20;99.90
33739;DHT22;20063;51.730;11.110;2023-09-19T15:12:10;20.30;99.90
33739;DHT22;20063;51.730;11.110;2023-09-19T15:14:40;20.30;99.90
33739;DHT22;20063;51.730;11.110;2023-09-19T15:17:07;20.40;99.90
33739;DHT22;20063;51.730;11.110;2023-09-19T15:19:33;20.40;99.90
33739;DHT22;20063;51.730;11.110;2023-09-19T15:21:58;20.30;99.90
33739;DHT22;20063;51.730;11.110;2023-09-19T15:24:24;20.30;99.90
33739;DHT22;20063;51.730;11.110;2023-09-19T15:26:52;20.30;99.90
33739;DHT22;20063;51.730;11.110;2023-09-19T15:29:17;20.30;99.90
33739;DHT22;20063;51.730;11.110;2023-09-19T15:31:45;20.30;99.90
33739;DHT22;20063;51.730;11.110;2023-09-19T15:34:10;20.20;99.90
33739;DHT22;20063;51.730;11.110;2023-09-19T15:36:39;20.20;99.90
33739;DHT22;20063;51.730;11.110;2023-09-19T15:39:07;20.20;99.90
33739;DHT22;20063;51.730;11.110;2023-09-19T15:41:45;20.20;99.90
33739;DHT22;20063;51.730;11.110;2023-09-19T15:44:16;20.10;99.90
33739;DHT22;20063;51.730;11.110;2023-09-19T15:46:42;20.20;99.90
33739;DHT22;20063;51.730;11.110;2023-09-19T15:49:11;20.20;99.90
33739;DHT22;20063;51.730;11.110;2023-09-19T15:51:37;20.20;99.90
33739;DHT22;20063;51.730;11.110;2023-09-19T15:54:13;20.20;99.90
33739;DHT22;20063;51.730;11.110;2023-09-19T15:56:41;20.20;99.90
33739;DHT22;20063;51.730;11.110;2023-09-19T15:59:07;20.20;99.90
33739;DHT22;20063;51.730;11.110;2023-09-19T16:01:33;20.20;99.90
33739;DHT22;20063;51.730;11.110;2023-09-19T16:03:59;20.20;99.90
33739;DHT22;20063;51.730;11.110;2023-09-19T16:06:27;20.10;99.90
33739;DHT22;20063;51.730;11.110;2023-09-19T16:08:54;20.10;99.90
33739;DHT22;20063;51.730;11.110;2023-09-19T16:11:21;20.10;99.90
33739;DHT22;20063;51.730;11.110;2023-09-19T16:13:49;20.10;99.90
33739;DHT22;20063;51.730;11.110;2023-09-19T16:16:17;20.00;99.90
33739;DHT22;20063;51.730;11.110;2023-09-19T16:18:46;20.10;99.90
33739;DHT22;20063;51.730;11.110;2023-09-19T16:21:13;20.00;99.90